METAR Data
IDs: Format: Raw Decoded Include TAF

Data at: 1304 UTC 11 Dec 2018

KBEA 111255Z AUTO 00000KT 5SM BR CLR 04/02 A3040 RMK AO2 T00390020
KBEA 111235Z AUTO 00000KT 5SM BR CLR 04/02 A3040 RMK AO2 T00390019
KBEA 111215Z AUTO 00000KT 7SM CLR 04/02 A3039 RMK AO2 T00430024
KBEA 111155Z AUTO 00000KT 7SM CLR 04/02 A3040 RMK AO2 T00410018 10076 20041
KBEA 111135Z AUTO 00000KT 10SM CLR 07/04 A3040 RMK AO2 T00700042
KBEA 111115Z AUTO 25003KT 10SM CLR 07/04 A3040 RMK AO2 T00680039
KBEA 111055Z AUTO 25003KT 10SM CLR 08/04 A3039 RMK AO2 T00750042
KBEA 111035Z AUTO 26003KT 10SM CLR 07/04 A3039 RMK AO2 T00650036
KBEA 111015Z AUTO 26003KT 10SM CLR 06/04 A3039 RMK AO2 T00610035
KBEA 110955Z AUTO 00000KT 10SM CLR 05/02 A3039 RMK AO2 T00460023
KBEA 110935Z AUTO 00000KT 10SM CLR 07/04 A3039 RMK AO2 T00710035
KBEA 110915Z AUTO 00000KT 10SM CLR 07/03 A3039 RMK AO2 T00680034
KBEA 110855Z AUTO 00000KT 10SM CLR 06/03 A3039 RMK AO2 T00600030
KBEA 110835Z AUTO 00000KT 10SM CLR 06/03 A3040 RMK AO2 T00560028
KBEA 110815Z AUTO 00000KT 10SM CLR 05/03 A3040 RMK AO2 T00530026
KBEA 110755Z AUTO 00000KT 10SM CLR 06/03 A3040 RMK AO2 T00580031
KBEA 110735Z AUTO 00000KT 10SM CLR 05/03 A3039 RMK AO2 T00510026
KBEA 110715Z AUTO 00000KT 10SM CLR 06/03 A3040 RMK AO2 T00580031
KBEA 110655Z AUTO 00000KT 10SM CLR 05/03 A3040 RMK AO2 T00530027
KBEA 110635Z AUTO 00000KT 10SM CLR 06/03 A3041 RMK AO2 T00580026
KBEA 110615Z AUTO 00000KT 10SM CLR 07/04 A3041 RMK AO2 T00660037
KBEA 110555Z AUTO 00000KT 10SM CLR 07/03 A3041 RMK AO2 T00690032 10151 20063 401760048
KBEA 110535Z AUTO 00000KT 10SM CLR 06/03 A3042 RMK AO2 T00630028
KBEA 110515Z AUTO 00000KT 10SM CLR 07/03 A3042 RMK AO2 T00650033
KBEA 110455Z AUTO 00000KT 10SM CLR 07/03 A3042 RMK AO2 T00680030
KBEA 110435Z AUTO 02004KT 10SM CLR 07/03 A3041 RMK AO2 T00680033
KBEA 110415Z AUTO 35005KT 10SM CLR 08/04 A3042 RMK AO2 T00840042
KBEA 110355Z AUTO 00000KT 10SM CLR 10/04 A3041 RMK AO2 T00950036
KBEA 110335Z AUTO 00000KT 10SM CLR 08/05 A3041 RMK AO2 T00810047
KBEA 110315Z AUTO 00000KT 10SM CLR 09/05 A3041 RMK AO2 T00900052
KBEA 110255Z AUTO 01005KT 10SM CLR 08/04 A3042 RMK AO2 T00810037
KBEA 110235Z AUTO 36007KT 10SM CLR 09/04 A3041 RMK AO2 T00920039
KBEA 110215Z AUTO 00000KT 10SM CLR 12/04 A3041 RMK AO2 T01160035
KBEA 110155Z AUTO 02004KT 10SM CLR 11/04 A3040 RMK AO2 T01140041
KBEA 110135Z AUTO 00000KT 10SM CLR 11/04 A3040 RMK AO2 T01080040
KBEA 110115Z AUTO 00000KT 10SM CLR 13/04 A3039 RMK AO2 T01260035
KBEA 110055Z AUTO 00000KT 10SM CLR 12/04 A3039 RMK AO2 T01240042
KBEA 110035Z AUTO 00000KT 10SM CLR 12/06 A3039 RMK AO2 T01160062
KBEA 110015Z AUTO 00000KT 10SM CLR 13/04 A3039 RMK AO2 T01270041
KBEA 102355Z AUTO 00000KT 10SM CLR 15/02 A3038 RMK AO2 T01510021 10176 20146
KBEA 102335Z AUTO 00000KT 10SM CLR 15/02 A3037 RMK AO2 T01530022
KBEA 102315Z AUTO 00000KT 10SM CLR 16/03 A3036 RMK AO2 T01590025
KBEA 102255Z AUTO 00000KT 10SM CLR 17/01 A3036 RMK AO2 T01660013
KBEA 102235Z AUTO 03003KT 10SM CLR 17/01 A3036 RMK AO2 T01700010
KBEA 102215Z AUTO 01003KT 10SM CLR 17/01 A3035 RMK AO2 T01730011
KBEA 102155Z AUTO 01004KT 10SM CLR 18/01 A3035 RMK AO2 T01750009
KBEA 102135Z AUTO 36005KT 10SM CLR 18/01 A3035 RMK AO2 T01760006
KBEA 102115Z AUTO 31004KT 10SM CLR 18/00 A3036 RMK AO2 T01751001
KBEA 102055Z AUTO 31003KT 10SM CLR 17/00 A3036 RMK AO2 T01740001
KBEA 102035Z AUTO 34004KT 10SM CLR 17/00 A3036 RMK AO2 T01711001
KBEA 102015Z AUTO 03004KT 10SM CLR 17/00 A3036 RMK AO2 T01720000
KBEA 101955Z AUTO 31005KT 10SM CLR 17/01 A3037 RMK AO2 T01690006
KBEA 101935Z AUTO 02004KT 10SM CLR 17/01 A3037 RMK AO2 T01680008
KBEA 101915Z AUTO 02005KT 10SM CLR 17/01 A3039 RMK AO2 T01650009
KBEA 101855Z AUTO 00000KT 10SM CLR 16/01 A3040 RMK AO2 T01590005
KBEA 101835Z AUTO 01004KT 10SM CLR 16/01 A3041 RMK AO2 T01560007
KBEA 101815Z AUTO 02003KT 10SM CLR 15/01 A3041 RMK AO2 T01500008
KBEA 101755Z AUTO 00000KT 10SM CLR 15/01 A3043 RMK AO2 T01470010 10147 20048
KBEA 101735Z AUTO 26003KT 10SM CLR 14/01 A3044 RMK AO2 T01420009
KBEA 101715Z AUTO 00000KT 10SM CLR 14/01 A3045 RMK AO2 T01360009
KBEA 101655Z AUTO 02013G43KT 340V090 10SM CLR 13/01 A3046 RMK AO2 T01290009
KBEA 101635Z AUTO 00000KT 10SM CLR 12/01 A3046 RMK AO2 T01210011
KBEA 101615Z AUTO 34004KT 10SM CLR 12/01 A3046 RMK AO2 T01160012
KBEA 101555Z AUTO 36004KT 10SM CLR 11/02 A3046 RMK AO2 T01090019
KBEA 101535Z AUTO 35004KT 10SM CLR 10/02 A3046 RMK AO2 T01000023
KBEA 101515Z AUTO 36005KT 10SM CLR 09/02 A3045 RMK AO2 T00910024
KBEA 101455Z AUTO 35007KT 10SM CLR 08/02 A3044 RMK AO2 T00830022
KBEA 101435Z AUTO 34004KT 10SM CLR 07/03 A3044 RMK AO2 T00730025
KBEA 101415Z AUTO 35005KT 10SM CLR 07/02 A3044 RMK AO2 T00650020
KBEA 101355Z AUTO 34004KT 10SM CLR 06/02 A3043 RMK AO2 T00570017
KBEA 101335Z AUTO 33005KT 10SM CLR 05/02 A3043 RMK AO2 T00500015
KBEA 101315Z AUTO 33005KT 10SM CLR 05/01 A3042 RMK AO2 T00480012
KBEA 101255Z AUTO 33004KT 10SM CLR 05/01 A3041 RMK AO2 T00500013
KBEA 101235Z AUTO 33004KT 10SM CLR 05/02 A3041 RMK AO2 T00520015
KBEA 101215Z AUTO 33004KT 10SM CLR 06/02 A3040 RMK AO2 T00550016
KBEA 101155Z AUTO 34004KT 10SM CLR 06/02 A3040 RMK AO2 T00550017 10067 20051
KBEA 101135Z AUTO 34004KT 10SM CLR 06/02 A3039 RMK AO2 T00560020
KBEA 101115Z AUTO 33004KT 10SM CLR 06/02 A3038 RMK AO2 T00550023
KBEA 101055Z AUTO 32004KT 10SM CLR 05/03 A3038 RMK AO2 T00520025
KBEA 101035Z AUTO 31004KT 10SM CLR 05/02 A3038 RMK AO2 T00540023
KBEA 101015Z AUTO 31003KT 10SM CLR 05/03 A3038 RMK AO2 T00530025
KBEA 100955Z AUTO 31003KT 10SM CLR 06/03 A3038 RMK AO2 T00560026
KBEA 100935Z AUTO 33003KT 10SM CLR 06/03 A3039 RMK AO2 T00570026
KBEA 100915Z AUTO 34005KT 10SM CLR 05/03 A3038 RMK AO2 T00530025
KBEA 100855Z AUTO 35005KT 10SM CLR 06/03 A3038 RMK AO2 T00570027
KBEA 100835Z AUTO 35004KT 10SM CLR 06/03 A3038 RMK AO2 T00610030
KBEA 100815Z AUTO 36005KT 10SM CLR 06/03 A3038 RMK AO2 T00620031
KBEA 100755Z AUTO 36005KT 10SM CLR 06/03 A3039 RMK AO2 T00630031
KBEA 100735Z AUTO 01005KT 10SM CLR 07/03 A3039 RMK AO2 T00650031
KBEA 100715Z AUTO 01004KT 10SM CLR 07/03 A3038 RMK AO2 T00650031
KBEA 100655Z AUTO 01005KT 10SM CLR 07/03 A3038 RMK AO2 T00660032
KBEA 100635Z AUTO 01006KT 10SM CLR 07/03 A3039 RMK AO2 T00650033
KBEA 100615Z AUTO 02005KT 10SM CLR 07/03 A3039 RMK AO2 T00650032
KBEA 100555Z AUTO 02004KT 10SM CLR 07/04 A3039 RMK AO2 T00680035 10122 20068 401550045
KBEA 100535Z AUTO 01005KT 10SM CLR 07/04 A3039 RMK AO2 T00710036
KBEA 100515Z AUTO 02006KT 10SM CLR 08/04 A3039 RMK AO2 T00770038
KBEA 100455Z AUTO 36007KT 10SM CLR 08/04 A3039 RMK AO2 T00820040
KBEA 100435Z AUTO 01005KT 10SM CLR 09/04 A3039 RMK AO2 T00850040
KBEA 100415Z AUTO 36006KT 10SM CLR 07/04 A3038 RMK AO2 T00740041
KBEA 100355Z AUTO 35004KT 10SM CLR 08/04 A3038 RMK AO2 T00810043
KBEA 100335Z AUTO 02004KT 10SM CLR 08/04 A3036 RMK AO2 T00830044
KBEA 100315Z AUTO 01004KT 10SM CLR 09/05 A3036 RMK AO2 T00860045
KBEA 100255Z AUTO 01004KT 10SM CLR 09/05 A3035 RMK AO2 T00900045
KBEA 100235Z AUTO 02004KT 10SM CLR 09/05 A3035 RMK AO2 T00900045
KBEA 100215Z AUTO 03004KT 10SM CLR 09/05 A3034 RMK AO2 T00930045
KBEA 100155Z AUTO 01006KT 10SM CLR 10/05 A3033 RMK AO2 T00980046
KBEA 100135Z AUTO 36007KT 10SM CLR 10/05 A3033 RMK AO2 T01040047
KBEA 100115Z AUTO 01006KT 10SM CLR 11/04 A3032 RMK AO2 T01120041